MMML

General Rodolfo Sánchez Taboada International Airport

Airport
ICAO code
MMML
IATA Code
MXL
Summary
ICAO Region
CARSAM
ICAO Territory
Location

Mesa Arenosa de Andrade, Baja California

Serving
Mexicali
Elevation
74 ft
Coordinates
32° 37' 50" N , 115° 14' 30" W
KCC
Metar
MMML 222341Z 16005KT 10SM SKC 35/M04 A2971 RMK SLP061 57023 960

General Rodolfo Sánchez Taboada International Airport Is an international airport located outside Mexicali, Baja California, Mexico, near the U.S.-Mexico border.

Climatology

Humid Subtropical climate (Köppen climate classification Cfa)

Runways

Designator Length Width Surface Rops
10/28 2600 45 CON Yes/Yes

Airport map

Aerial View

SKYbrary Partners:

Safety knowledge contributed by: